sensor_id;sensor_type;location;lat;lon;timestamp;pressure;altitude;pressure_sealevel;temperature;humidity
60715;BME280;46564;53.096;8.246;2023-02-20T00:00:16;102047.75;;;4.69;88.26
60715;BME280;46564;53.096;8.246;2023-02-20T00:05:19;102044.88;;;4.65;88.31
60715;BME280;46564;53.096;8.246;2023-02-20T00:10:21;102042.19;;;4.63;88.40
60715;BME280;46564;53.096;8.246;2023-02-20T00:15:24;102023.25;;;4.64;88.37
60715;BME280;46564;53.096;8.246;2023-02-20T00:20:26;101997.81;;;4.58;88.39
60715;BME280;46564;53.096;8.246;2023-02-20T00:25:28;101995.50;;;4.63;88.63
60715;BME280;46564;53.096;8.246;2023-02-20T00:30:29;101994.78;;;4.66;88.74
60715;BME280;46564;53.096;8.246;2023-02-20T00:35:31;101994.88;;;4.67;89.12
60715;BME280;46564;53.096;8.246;2023-02-20T00:40:32;101993.16;;;4.68;88.92
60715;BME280;46564;53.096;8.246;2023-02-20T00:45:35;101979.69;;;4.73;88.76
60715;BME280;46564;53.096;8.246;2023-02-20T00:50:37;101968.28;;;4.71;89.00
60715;BME280;46564;53.096;8.246;2023-02-20T00:55:38;101957.22;;;4.74;89.13
60715;BME280;46564;53.096;8.246;2023-02-20T01:00:39;101930.56;;;4.76;89.21
60715;BME280;46564;53.096;8.246;2023-02-20T01:05:41;101931.44;;;4.77;89.36
60715;BME280;46564;53.096;8.246;2023-02-20T01:10:42;101934.13;;;4.78;89.18
60715;BME280;46564;53.096;8.246;2023-02-20T01:15:44;101920.53;;;4.83;89.44
60715;BME280;46564;53.096;8.246;2023-02-20T01:20:46;101911.78;;;4.81;89.25
60715;BME280;46564;53.096;8.246;2023-02-20T01:25:47;101899.59;;;4.80;89.19
60715;BME280;46564;53.096;8.246;2023-02-20T01:30:49;101895.94;;;4.76;89.39
60715;BME280;46564;53.096;8.246;2023-02-20T01:35:50;101876.50;;;4.84;89.28
60715;BME280;46564;53.096;8.246;2023-02-20T01:40:55;101855.81;;;4.86;89.15
60715;BME280;46564;53.096;8.246;2023-02-20T01:51:33;101832.47;;;4.86;89.25
60715;BME280;46564;53.096;8.246;2023-02-20T01:56:36;101862.47;;;4.81;89.24
60715;BME280;46564;53.096;8.246;2023-02-20T02:01:39;101856.53;;;4.83;89.34
60715;BME280;46564;53.096;8.246;2023-02-20T02:06:43;101839.47;;;4.87;89.43
60715;BME280;46564;53.096;8.246;2023-02-20T02:11:47;101822.97;;;4.86;89.39
60715;BME280;46564;53.096;8.246;2023-02-20T02:22:25;101788.06;;;4.96;89.23
60715;BME280;46564;53.096;8.246;2023-02-20T02:33:02;101744.34;;;5.04;89.28
60715;BME280;46564;53.096;8.246;2023-02-20T02:48:50;101723.19;;;5.12;89.04
60715;BME280;46564;53.096;8.246;2023-02-20T02:54:13;101716.44;;;5.16;89.14
60715;BME280;46564;53.096;8.246;2023-02-20T02:59:30;101702.13;;;5.23;88.96
60715;BME280;46564;53.096;8.246;2023-02-20T03:04:35;101700.00;;;5.32;88.79
60715;BME280;46564;53.096;8.246;2023-02-20T03:09:44;101682.06;;;5.37;88.47
60715;BME280;46564;53.096;8.246;2023-02-20T03:14:55;101673.63;;;5.41;88.55
60715;BME280;46564;53.096;8.246;2023-02-20T03:20:20;101643.19;;;5.38;88.34
60715;BME280;46564;53.096;8.246;2023-02-20T03:25:39;101634.81;;;5.44;88.32
60715;BME280;46564;53.096;8.246;2023-02-20T03:30:53;101633.09;;;5.44;88.41
60715;BME280;46564;53.096;8.246;2023-02-20T03:35:58;101650.88;;;5.53;88.45
60715;BME280;46564;53.096;8.246;2023-02-20T03:41:21;101630.16;;;5.55;88.35
60715;BME280;46564;53.096;8.246;2023-02-20T03:46:44;101625.84;;;5.55;88.57
60715;BME280;46564;53.096;8.246;2023-02-20T03:51:48;101616.06;;;5.49;88.27
60715;BME280;46564;53.096;8.246;2023-02-20T03:57:07;101614.19;;;5.47;88.35
60715;BME280;46564;53.096;8.246;2023-02-20T04:02:21;101623.03;;;5.51;88.41
60715;BME280;46564;53.096;8.246;2023-02-20T04:07:33;101625.53;;;5.49;88.56
60715;BME280;46564;53.096;8.246;2023-02-20T04:12:40;101624.81;;;5.52;88.80
60715;BME280;46564;53.096;8.246;2023-02-20T04:17:48;101621.25;;;5.49;88.84
60715;BME280;46564;53.096;8.246;2023-02-20T04:22:52;101622.22;;;5.52;88.88
60715;BME280;46564;53.096;8.246;2023-02-20T04:27:57;101606.63;;;5.52;88.95
60715;BME280;46564;53.096;8.246;2023-02-20T04:32:59;101624.75;;;5.50;89.14
60715;BME280;46564;53.096;8.246;2023-02-20T04:38:01;101650.00;;;5.53;89.34
60715;BME280;46564;53.096;8.246;2023-02-20T04:43:04;101634.34;;;5.51;89.38
60715;BME280;46564;53.096;8.246;2023-02-20T04:48:06;101610.25;;;5.55;89.44
60715;BME280;46564;53.096;8.246;2023-02-20T04:53:07;101609.31;;;5.53;89.52
60715;BME280;46564;53.096;8.246;2023-02-20T04:58:09;101604.19;;;5.55;89.52
60715;BME280;46564;53.096;8.246;2023-02-20T05:03:25;101597.34;;;5.57;90.08
60715;BME280;46564;53.096;8.246;2023-02-20T05:08:30;101607.59;;;5.54;89.96
60715;BME280;46564;53.096;8.246;2023-02-20T05:13:31;101591.84;;;5.51;90.05
60715;BME280;46564;53.096;8.246;2023-02-20T05:18:33;101583.25;;;5.52;90.30
60715;BME280;46564;53.096;8.246;2023-02-20T05:23:34;101566.03;;;5.54;90.23
60715;BME280;46564;53.096;8.246;2023-02-20T05:28:37;101555.63;;;5.54;90.37
60715;BME280;46564;53.096;8.246;2023-02-20T05:33:40;101542.41;;;5.49;90.44
60715;BME280;46564;53.096;8.246;2023-02-20T05:38:41;101550.78;;;5.43;90.71
60715;BME280;46564;53.096;8.246;2023-02-20T05:43:48;101544.88;;;5.46;90.65
60715;BME280;46564;53.096;8.246;2023-02-20T05:48:50;101548.25;;;5.45;90.83
60715;BME280;46564;53.096;8.246;2023-02-20T05:53:52;101562.16;;;5.45;90.97
60715;BME280;46564;53.096;8.246;2023-02-20T05:58:54;101560.69;;;5.51;91.11
60715;BME280;46564;53.096;8.246;2023-02-20T06:03:56;101545.47;;;5.58;91.23
60715;BME280;46564;53.096;8.246;2023-02-20T06:08:58;101550.00;;;5.62;90.98
60715;BME280;46564;53.096;8.246;2023-02-20T06:14:00;101552.69;;;5.64;91.34
60715;BME280;46564;53.096;8.246;2023-02-20T06:19:02;101558.25;;;5.72;91.05
60715;BME280;46564;53.096;8.246;2023-02-20T06:24:05;101532.34;;;5.73;91.00
60715;BME280;46564;53.096;8.246;2023-02-20T06:29:07;101528.94;;;5.74;91.01
60715;BME280;46564;53.096;8.246;2023-02-20T06:34:09;101525.81;;;5.81;90.88
60715;BME280;46564;53.096;8.246;2023-02-20T06:39:12;101524.19;;;5.83;91.06
60715;BME280;46564;53.096;8.246;2023-02-20T06:44:14;101528.56;;;5.84;91.13
60715;BME280;46564;53.096;8.246;2023-02-20T06:49:16;101512.16;;;5.86;91.39
60715;BME280;46564;53.096;8.246;2023-02-20T06:54:17;101521.06;;;5.91;91.47
60715;BME280;46564;53.096;8.246;2023-02-20T06:59:22;101522.00;;;5.93;91.62
60715;BME280;46564;53.096;8.246;2023-02-20T07:04:24;101521.66;;;6.03;91.70
60715;BME280;46564;53.096;8.246;2023-02-20T07:09:28;101526.13;;;6.06;91.72
60715;BME280;46564;53.096;8.246;2023-02-20T07:14:29;101524.56;;;6.09;91.91
60715;BME280;46564;53.096;8.246;2023-02-20T07:19:31;101528.28;;;6.14;91.79
60715;BME280;46564;53.096;8.246;2023-02-20T07:24:33;101545.81;;;6.18;92.10
60715;BME280;46564;53.096;8.246;2023-02-20T07:29:37;101552.09;;;6.24;91.95
60715;BME280;46564;53.096;8.246;2023-02-20T07:34:41;101535.69;;;6.25;92.14
60715;BME280;46564;53.096;8.246;2023-02-20T07:39:58;101529.94;;;6.32;92.18
60715;BME280;46564;53.096;8.246;2023-02-20T07:44:59;101524.13;;;6.37;92.02
60715;BME280;46564;53.096;8.246;2023-02-20T07:50:02;101525.91;;;6.39;92.30
60715;BME280;46564;53.096;8.246;2023-02-20T07:55:04;101520.13;;;6.44;92.23
60715;BME280;46564;53.096;8.246;2023-02-20T08:00:06;101542.81;;;6.48;92.23
60715;BME280;46564;53.096;8.246;2023-02-20T08:05:14;101499.72;;;6.53;92.16
60715;BME280;46564;53.096;8.246;2023-02-20T08:10:18;101521.63;;;6.59;92.30
60715;BME280;46564;53.096;8.246;2023-02-20T08:15:21;101512.19;;;6.61;92.39
60715;BME280;46564;53.096;8.246;2023-02-20T08:20:23;101527.94;;;6.64;92.27
60715;BME280;46564;53.096;8.246;2023-02-20T08:25:25;101503.66;;;6.65;92.40
60715;BME280;46564;53.096;8.246;2023-02-20T08:30:27;101524.75;;;6.71;92.42
60715;BME280;46564;53.096;8.246;2023-02-20T08:35:29;101521.47;;;6.75;92.44
60715;BME280;46564;53.096;8.246;2023-02-20T08:40:31;101524.84;;;6.72;92.64
60715;BME280;46564;53.096;8.246;2023-02-20T08:45:32;101519.72;;;6.74;92.59
60715;BME280;46564;53.096;8.246;2023-02-20T08:50:34;101500.66;;;6.75;92.64
60715;BME280;46564;53.096;8.246;2023-02-20T08:55:36;101494.97;;;6.84;92.65
60715;BME280;46564;53.096;8.246;2023-02-20T09:00:38;101494.22;;;6.86;92.74
60715;BME280;46564;53.096;8.246;2023-02-20T09:05:41;101491.88;;;6.93;92.72
60715;BME280;46564;53.096;8.246;2023-02-20T09:10:42;101497.28;;;6.97;92.83
60715;BME280;46564;53.096;8.246;2023-02-20T09:15:44;101503.50;;;7.01;92.79
60715;BME280;46564;53.096;8.246;2023-02-20T09:20:46;101507.41;;;7.11;92.81
60715;BME280;46564;53.096;8.246;2023-02-20T09:25:48;101507.91;;;7.23;92.80
60715;BME280;46564;53.096;8.246;2023-02-20T09:30:51;101511.69;;;7.30;92.94
60715;BME280;46564;53.096;8.246;2023-02-20T09:35:55;101511.75;;;7.31;92.96
60715;BME280;46564;53.096;8.246;2023-02-20T09:40:58;101508.44;;;7.35;92.74
60715;BME280;46564;53.096;8.246;2023-02-20T09:46:20;101511.34;;;7.43;92.72
60715;BME280;46564;53.096;8.246;2023-02-20T09:51:25;101505.63;;;7.52;92.77
60715;BME280;46564;53.096;8.246;2023-02-20T09:56:31;101505.81;;;7.56;92.50
60715;BME280;46564;53.096;8.246;2023-02-20T10:01:38;101513.69;;;7.58;92.50
60715;BME280;46564;53.096;8.246;2023-02-20T10:06:43;101515.47;;;7.59;92.50
60715;BME280;46564;53.096;8.246;2023-02-20T10:12:10;101504.44;;;7.65;92.49
60715;BME280;46564;53.096;8.246;2023-02-20T10:22:41;101508.88;;;7.67;92.47
60715;BME280;46564;53.096;8.246;2023-02-20T10:27:53;101495.13;;;7.71;92.27
60715;BME280;46564;53.096;8.246;2023-02-20T10:38:27;101497.09;;;7.77;92.07
60715;BME280;46564;53.096;8.246;2023-02-20T10:43:38;101495.25;;;7.74;92.02
60715;BME280;46564;53.096;8.246;2023-02-20T10:48:42;101488.38;;;7.76;92.25
60715;BME280;46564;53.096;8.246;2023-02-20T10:59:06;101506.81;;;7.81;92.40
60715;BME280;46564;53.096;8.246;2023-02-20T11:04:22;101509.38;;;7.79;92.35
60715;BME280;46564;53.096;8.246;2023-02-20T11:09:28;101527.69;;;7.81;92.58
60715;BME280;46564;53.096;8.246;2023-02-20T11:14:49;101487.75;;;7.82;92.41
60715;BME280;46564;53.096;8.246;2023-02-20T11:19:55;101498.09;;;7.81;92.61
60715;BME280;46564;53.096;8.246;2023-02-20T11:25:13;101502.47;;;7.82;92.70
60715;BME280;46564;53.096;8.246;2023-02-20T11:30:23;101510.13;;;7.77;92.75
60715;BME280;46564;53.096;8.246;2023-02-20T11:35:33;101490.94;;;7.75;93.02
60715;BME280;46564;53.096;8.246;2023-02-20T11:40:36;101500.56;;;7.77;93.00
60715;BME280;46564;53.096;8.246;2023-02-20T11:45:37;101494.72;;;7.83;93.13
60715;BME280;46564;53.096;8.246;2023-02-20T11:55:48;101485.63;;;7.94;93.10
60715;BME280;46564;53.096;8.246;2023-02-20T12:01:00;101481.44;;;8.00;93.03
60715;BME280;46564;53.096;8.246;2023-02-20T12:11:32;101477.56;;;8.11;92.73
60715;BME280;46564;53.096;8.246;2023-02-20T12:33:15;101467.56;;;8.23;91.63
60715;BME280;46564;53.096;8.246;2023-02-20T12:38:40;101464.97;;;8.23;91.42
60715;BME280;46564;53.096;8.246;2023-02-20T12:44:15;101467.63;;;8.25;91.26
60715;BME280;46564;53.096;8.246;2023-02-20T12:49:46;101439.22;;;8.32;91.13
60715;BME280;46564;53.096;8.246;2023-02-20T12:54:57;101439.22;;;8.32;91.13
60715;BME280;46564;53.096;8.246;2023-02-20T13:00:05;101440.16;;;8.35;90.90
60715;BME280;46564;53.096;8.246;2023-02-20T13:05:19;101435.56;;;8.27;90.93
60715;BME280;46564;53.096;8.246;2023-02-20T13:11:03;101437.19;;;8.25;91.38
60715;BME280;46564;53.096;8.246;2023-02-20T13:16:15;101418.94;;;8.25;91.42
60715;BME280;46564;53.096;8.246;2023-02-20T13:21:22;101419.78;;;8.24;91.55
60715;BME280;46564;53.096;8.246;2023-02-20T13:36:41;101424.41;;;8.09;92.53
60715;BME280;46564;53.096;8.246;2023-02-20T13:46:59;101421.16;;;8.14;93.16
60715;BME280;46564;53.096;8.246;2023-02-20T13:57:31;101402.47;;;8.26;92.99
60715;BME280;46564;53.096;8.246;2023-02-20T14:02:40;101406.16;;;8.33;93.06
60715;BME280;46564;53.096;8.246;2023-02-20T14:07:44;101393.38;;;8.39;93.07
60715;BME280;46564;53.096;8.246;2023-02-20T14:13:01;101402.25;;;8.44;92.48
60715;BME280;46564;53.096;8.246;2023-02-20T14:18:03;101398.03;;;8.48;92.56
60715;BME280;46564;53.096;8.246;2023-02-20T14:23:24;101399.81;;;8.49;92.32
60715;BME280;46564;53.096;8.246;2023-02-20T14:28:28;101386.75;;;8.49;92.27
60715;BME280;46564;53.096;8.246;2023-02-20T14:33:31;101398.09;;;8.49;92.24
60715;BME280;46564;53.096;8.246;2023-02-20T14:44:09;101402.63;;;8.55;92.40
60715;BME280;46564;53.096;8.246;2023-02-20T14:49:16;101409.66;;;8.56;92.02
60715;BME280;46564;53.096;8.246;2023-02-20T14:54:25;101401.91;;;8.59;92.01
60715;BME280;46564;53.096;8.246;2023-02-20T14:59:35;101407.16;;;8.59;92.03
60715;BME280;46564;53.096;8.246;2023-02-20T15:04:45;101411.50;;;8.59;92.02
60715;BME280;46564;53.096;8.246;2023-02-20T15:09:50;101408.88;;;8.59;92.08
60715;BME280;46564;53.096;8.246;2023-02-20T15:15:05;101413.41;;;8.64;91.87
60715;BME280;46564;53.096;8.246;2023-02-20T15:25:35;101403.06;;;8.67;91.75
60715;BME280;46564;53.096;8.246;2023-02-20T15:36:02;101393.56;;;8.70;91.61
60715;BME280;46564;53.096;8.246;2023-02-20T15:41:05;101392.81;;;8.72;91.83
60715;BME280;46564;53.096;8.246;2023-02-20T15:46:06;101393.69;;;8.73;91.58
60715;BME280;46564;53.096;8.246;2023-02-20T15:51:09;101397.00;;;8.69;91.54
60715;BME280;46564;53.096;8.246;2023-02-20T15:56:12;101387.59;;;8.72;91.39
60715;BME280;46564;53.096;8.246;2023-02-20T16:01:15;101386.63;;;8.70;91.61
60715;BME280;46564;53.096;8.246;2023-02-20T16:06:18;101383.09;;;8.68;91.50
60715;BME280;46564;53.096;8.246;2023-02-20T16:11:23;101387.44;;;8.69;91.60
60715;BME280;46564;53.096;8.246;2023-02-20T16:16:35;101397.16;;;8.73;91.85
60715;BME280;46564;53.096;8.246;2023-02-20T16:21:38;101388.97;;;8.62;91.77
60715;BME280;46564;53.096;8.246;2023-02-20T16:26:50;101384.31;;;8.54;92.31
60715;BME280;46564;53.096;8.246;2023-02-20T16:36:56;101392.56;;;8.42;92.86
60715;BME280;46564;53.096;8.246;2023-02-20T16:47:49;101390.44;;;8.31;93.74
60715;BME280;46564;53.096;8.246;2023-02-20T16:52:54;101388.03;;;8.36;94.11
60715;BME280;46564;53.096;8.246;2023-02-20T16:58:37;101386.31;;;8.37;94.16
60715;BME280;46564;53.096;8.246;2023-02-20T17:04:14;101397.63;;;8.37;94.22
60715;BME280;46564;53.096;8.246;2023-02-20T17:09:43;101393.97;;;8.32;94.32
60715;BME280;46564;53.096;8.246;2023-02-20T17:14:49;101397.28;;;8.28;94.55
60715;BME280;46564;53.096;8.246;2023-02-20T17:19:56;101397.13;;;8.23;94.80
60715;BME280;46564;53.096;8.246;2023-02-20T17:25:25;101399.75;;;8.23;95.14
60715;BME280;46564;53.096;8.246;2023-02-20T17:30:45;101398.88;;;8.23;95.39
60715;BME280;46564;53.096;8.246;2023-02-20T17:42:54;101406.44;;;8.17;95.97
60715;BME280;46564;53.096;8.246;2023-02-20T18:47:22;101410.22;;;8.01;96.94
60715;BME280;46564;53.096;8.246;2023-02-20T19:18:55;101406.59;;;7.97;97.01
60715;BME280;46564;53.096;8.246;2023-02-20T19:25:04;101396.31;;;8.00;97.03
60715;BME280;46564;53.096;8.246;2023-02-20T19:37:36;101406.78;;;8.02;97.07
60715;BME280;46564;53.096;8.246;2023-02-20T19:43:47;101411.09;;;8.01;97.09
60715;BME280;46564;53.096;8.246;2023-02-20T19:56:50;101391.13;;;8.02;96.98
60715;BME280;46564;53.096;8.246;2023-02-20T20:16:03;101386.16;;;8.08;96.90
60715;BME280;46564;53.096;8.246;2023-02-20T20:43:10;101381.16;;;8.14;96.81
60715;BME280;46564;53.096;8.246;2023-02-20T20:54:39;101385.50;;;8.15;96.59
60715;BME280;46564;53.096;8.246;2023-02-20T21:00:33;101378.66;;;8.17;96.48
60715;BME280;46564;53.096;8.246;2023-02-20T21:06:13;101372.78;;;8.23;96.63
60715;BME280;46564;53.096;8.246;2023-02-20T21:12:03;101379.13;;;8.31;96.40
60715;BME280;46564;53.096;8.246;2023-02-20T21:17:46;101371.53;;;8.37;96.37
60715;BME280;46564;53.096;8.246;2023-02-20T21:23:06;101372.50;;;8.39;96.23
60715;BME280;46564;53.096;8.246;2023-02-20T21:28:54;101375.28;;;8.44;95.78
60715;BME280;46564;53.096;8.246;2023-02-20T21:34:18;101372.72;;;8.45;95.68
60715;BME280;46564;53.096;8.246;2023-02-20T21:39:50;101355.41;;;8.47;95.68
60715;BME280;46564;53.096;8.246;2023-02-20T21:51:34;101371.25;;;8.54;95.25
60715;BME280;46564;53.096;8.246;2023-02-20T21:56:49;101370.50;;;8.56;94.91
60715;BME280;46564;53.096;8.246;2023-02-20T22:14:01;101364.25;;;8.53;94.70
60715;BME280;46564;53.096;8.246;2023-02-20T22:19:38;101373.59;;;8.46;94.84
60715;BME280;46564;53.096;8.246;2023-02-20T22:25:48;101371.69;;;8.42;95.25
60715;BME280;46564;53.096;8.246;2023-02-20T22:31:35;101366.34;;;8.39;95.39
60715;BME280;46564;53.096;8.246;2023-02-20T22:37:12;101386.25;;;8.35;95.51
60715;BME280;46564;53.096;8.246;2023-02-20T22:43:15;101384.31;;;8.29;95.72
60715;BME280;46564;53.096;8.246;2023-02-20T22:48:39;101378.09;;;8.26;95.93
60715;BME280;46564;53.096;8.246;2023-02-20T22:54:07;101384.25;;;8.28;96.08
60715;BME280;46564;53.096;8.246;2023-02-20T23:05:48;101385.03;;;8.25;96.45
60715;BME280;46564;53.096;8.246;2023-02-20T23:11:23;101376.31;;;8.25;96.49
60715;BME280;46564;53.096;8.246;2023-02-20T23:23:49;101369.75;;;8.12;97.14
60715;BME280;46564;53.096;8.246;2023-02-20T23:29:34;101362.78;;;8.11;97.29
60715;BME280;46564;53.096;8.246;2023-02-20T23:35:19;101360.94;;;8.08;97.23
60715;BME280;46564;53.096;8.246;2023-02-20T23:41:42;101362.66;;;8.08;97.38
60715;BME280;46564;53.096;8.246;2023-02-20T23:54:30;101364.41;;;8.09;97.81
